Terminal Aerodrome Forecast
Issued by NWS St Louis, MO

Home | Current Version | Previous Version | Text Only | Print | Product List | Glossary On
Versions: 1 2 3 4 5 6 7 8 9 10 11 12 13 14 15
284
FTUS43 KLSX 202320
TAFCOU
TAF
KCOU 202320Z 2100/2124 23010KT P6SM FEW250
     FM210200 22004KT P6SM FEW150
     FM211700 22008KT P6SM FEW250=

USA.gov is the U.S. government's official web portal to all federal, state and local government web resources and services.